createdAt,value
2023-03-11T00:01:53.997Z,21.70
2023-03-11T00:05:23.659Z,20.50
2023-03-11T00:08:53.464Z,20.92
2023-03-11T00:12:22.157Z,21.63
2023-03-11T00:15:51.189Z,25.48
2023-03-11T00:19:19.470Z,12.88
2023-03-11T00:22:47.507Z,18.67
2023-03-11T00:26:16.984Z,14.15
2023-03-11T00:29:45.046Z,13.65
2023-03-11T00:33:13.912Z,19.60
2023-03-11T00:36:42.620Z,20.48
2023-03-11T00:40:13.481Z,20.35
2023-03-11T00:43:42.844Z,18.63
2023-03-11T00:47:12.084Z,21.25
2023-03-11T00:50:39.977Z,38.53
2023-03-11T00:54:08.264Z,27.30
2023-03-11T01:01:08.521Z,16.52
2023-03-11T01:04:36.730Z,19.23
2023-03-11T01:11:33.973Z,18.33
2023-03-11T01:15:01.926Z,17.77
2023-03-11T01:18:31.554Z,44.97
2023-03-11T01:22:01.515Z,24.83
2023-03-11T01:25:29.426Z,29.48
2023-03-11T01:29:04.700Z,19.08
2023-03-11T01:32:34.029Z,14.70
2023-03-11T01:36:02.240Z,13.15
2023-03-11T01:39:30.095Z,43.95
2023-03-11T01:42:58.791Z,50.67
2023-03-11T01:47:21.363Z,13.02
2023-03-11T01:50:51.890Z,27.65
2023-03-11T01:54:22.016Z,17.60
2023-03-11T01:57:52.276Z,13.35
2023-03-11T02:01:21.314Z,14.80
2023-03-11T02:04:52.170Z,13.55
2023-03-11T02:08:23.254Z,29.27
2023-03-11T02:11:53.224Z,15.02
2023-03-11T02:15:21.284Z,15.95
2023-03-11T02:18:49.930Z,12.15
2023-03-11T02:22:23.399Z,12.98
2023-03-11T02:26:01.565Z,11.27
2023-03-11T02:29:34.088Z,14.20
2023-03-11T02:33:05.761Z,17.88
2023-03-11T02:36:35.978Z,22.20
2023-03-11T02:40:20.575Z,16.40
2023-03-11T02:43:51.073Z,23.80
2023-03-11T02:47:20.681Z,19.73
2023-03-11T02:50:48.937Z,12.18
2023-03-11T02:54:19.168Z,9.63
2023-03-11T02:57:47.800Z,13.52
2023-03-11T03:01:18.299Z,12.05
2023-03-11T03:04:47.280Z,11.88
2023-03-11T03:08:16.265Z,12.23
2023-03-11T03:11:44.110Z,11.75
2023-03-11T03:15:13.409Z,12.40
2023-03-11T03:18:43.437Z,11.93
2023-03-11T03:22:11.731Z,12.43
2023-03-11T03:25:43.581Z,10.45
2023-03-11T03:29:12.113Z,14.18
2023-03-11T03:37:40.438Z,10.88
2023-03-11T03:41:09.009Z,13.63
2023-03-11T03:44:40.874Z,8.85
2023-03-11T03:48:09.450Z,10.13
2023-03-11T03:51:43.445Z,8.30
2023-03-11T03:55:18.232Z,7.47
2023-03-11T03:58:46.555Z,6.25
2023-03-11T04:09:13.598Z,9.82
2023-03-11T04:12:42.106Z,5.68
2023-03-11T04:19:37.878Z,7.35
2023-03-11T04:23:06.237Z,10.00
2023-03-11T04:26:36.038Z,7.85
2023-03-11T04:30:05.634Z,5.68
2023-03-11T04:33:34.754Z,7.70
2023-03-11T04:37:05.463Z,8.77
2023-03-11T04:40:37.875Z,4.85
2023-03-11T04:44:06.357Z,5.65
2023-03-11T04:47:36.387Z,9.63
2023-03-11T04:51:07.548Z,5.55
2023-03-11T04:54:35.728Z,6.90
2023-03-11T04:58:06.269Z,5.40
2023-03-11T05:01:35.887Z,6.97
2023-03-11T05:05:07.241Z,3.97
2023-03-11T05:08:36.114Z,5.60
2023-03-11T05:12:05.915Z,5.20
2023-03-11T05:15:37.576Z,9.52
2023-03-11T05:19:27.173Z,12.52
2023-03-11T05:22:56.156Z,6.10
2023-03-11T05:29:53.620Z,9.20
2023-03-11T05:33:22.892Z,7.32
2023-03-11T05:36:52.086Z,7.85
2023-03-11T05:40:20.353Z,6.28
2023-03-11T05:43:48.974Z,8.70
2023-03-11T05:50:49.497Z,8.95
2023-03-11T05:54:18.398Z,10.45
2023-03-11T05:57:52.653Z,8.60
2023-03-11T06:01:23.350Z,8.30
2023-03-11T06:04:53.527Z,4.75
2023-03-11T06:08:22.318Z,8.85
2023-03-11T06:11:50.170Z,16.77
2023-03-11T06:15:20.493Z,6.75
2023-03-11T06:18:50.076Z,6.53
2023-03-11T06:22:21.045Z,5.20
2023-03-11T06:25:56.190Z,8.10
2023-03-11T06:29:26.762Z,7.70
2023-03-11T06:32:56.791Z,6.00
2023-03-11T06:36:27.490Z,7.47
2023-03-11T06:39:56.319Z,10.50
2023-03-11T06:43:26.485Z,9.95
2023-03-11T06:46:56.390Z,8.50
2023-03-11T06:50:24.803Z,9.23
2023-03-11T06:53:56.581Z,8.50
2023-03-11T06:57:26.933Z,10.57
2023-03-11T07:01:01.651Z,6.78
2023-03-11T07:04:30.929Z,7.32
2023-03-11T07:08:00.961Z,8.27
2023-03-11T07:11:29.958Z,3.58
2023-03-11T07:15:06.772Z,5.47
2023-03-11T07:18:36.576Z,6.65
2023-03-11T07:22:05.532Z,6.80
2023-03-11T07:25:34.904Z,5.40
2023-03-11T07:29:03.047Z,5.00
2023-03-11T07:32:32.194Z,10.00
2023-03-11T07:36:00.451Z,6.43
2023-03-11T07:39:29.256Z,8.85
2023-03-11T07:42:59.298Z,6.65
2023-03-11T07:46:28.154Z,7.57
2023-03-11T07:49:57.385Z,6.50
2023-03-11T07:53:25.781Z,4.65
2023-03-11T07:56:56.167Z,6.18
2023-03-11T08:00:26.014Z,7.63
2023-03-11T08:03:57.043Z,6.78
2023-03-11T08:07:26.805Z,8.55
2023-03-11T08:10:55.197Z,5.57
2023-03-11T08:14:23.198Z,7.60
2023-03-11T08:17:52.925Z,7.50
2023-03-11T08:21:22.290Z,6.28
2023-03-11T08:24:52.335Z,7.53
2023-03-11T08:28:20.515Z,8.27
2023-03-11T08:31:48.439Z,4.78
2023-03-11T08:35:18.435Z,6.50
2023-03-11T08:38:46.475Z,6.68
2023-03-11T08:42:15.057Z,7.22
2023-03-11T08:45:43.962Z,4.75
2023-03-11T08:49:12.726Z,5.57
2023-03-11T08:52:42.481Z,7.90
2023-03-11T08:56:13.586Z,5.35
2023-03-11T08:59:41.788Z,7.63
2023-03-11T09:03:10.867Z,8.25
2023-03-11T09:06:38.959Z,4.57
2023-03-11T09:10:10.427Z,7.60
2023-03-11T09:13:41.073Z,7.43
2023-03-11T09:17:12.206Z,5.72
2023-03-11T09:20:40.607Z,6.65
2023-03-11T09:27:38.234Z,11.82
2023-03-11T09:34:37.333Z,6.50
2023-03-11T09:38:05.173Z,8.13
2023-03-11T09:41:55.650Z,8.20
2023-03-11T09:45:32.032Z,8.93
2023-03-11T09:49:10.952Z,6.40
2023-03-11T09:52:45.527Z,6.18
2023-03-11T09:56:24.365Z,8.25
2023-03-11T09:59:53.156Z,8.60
2023-03-11T10:03:27.940Z,3.97
2023-03-11T10:07:03.453Z,5.78
2023-03-11T10:10:41.108Z,7.50
2023-03-11T10:14:22.227Z,8.50
2023-03-11T10:18:02.022Z,16.00
2023-03-11T10:21:39.297Z,6.20
2023-03-11T10:25:22.914Z,7.40
2023-03-11T10:28:55.911Z,6.38
2023-03-11T10:32:32.271Z,5.90
2023-03-11T10:36:06.252Z,5.20
2023-03-11T10:39:35.583Z,5.32
2023-03-11T10:43:05.550Z,4.18
2023-03-11T10:46:38.056Z,5.72
2023-03-11T10:50:08.482Z,6.80
2023-03-11T10:53:45.776Z,4.53
2023-03-11T10:57:27.680Z,2.90
2023-03-11T11:01:15.106Z,5.40
2023-03-11T11:04:43.395Z,3.88
2023-03-11T11:08:22.203Z,6.15
2023-03-11T11:15:44.474Z,5.78
2023-03-11T11:19:19.812Z,2.70
2023-03-11T11:22:50.852Z,3.78
2023-03-11T11:26:29.251Z,5.43
2023-03-11T11:30:15.878Z,3.47
2023-03-11T11:33:50.843Z,4.28
2023-03-11T11:37:20.575Z,3.92
2023-03-11T11:40:49.972Z,4.38
2023-03-11T11:44:22.210Z,11.13
2023-03-11T11:47:55.356Z,6.60
2023-03-11T11:51:31.361Z,5.65
2023-03-11T11:55:03.229Z,5.68
2023-03-11T11:58:32.012Z,8.27
2023-03-11T12:02:14.314Z,3.78
2023-03-11T12:05:54.303Z,4.65
2023-03-11T12:09:31.289Z,3.50
2023-03-11T12:13:19.272Z,4.22
2023-03-11T12:16:54.922Z,3.80
2023-03-11T12:20:33.525Z,2.35
2023-03-11T12:24:31.687Z,2.17
2023-03-11T12:28:09.465Z,5.90
2023-03-11T12:31:42.428Z,5.83
2023-03-11T12:35:23.112Z,5.38
2023-03-11T12:39:05.524Z,5.15
2023-03-11T12:42:40.535Z,7.97
2023-03-11T12:46:43.433Z,5.60
2023-03-11T12:50:31.113Z,4.07
2023-03-11T12:53:59.273Z,3.40
2023-03-11T12:57:35.958Z,5.45
2023-03-11T13:01:27.458Z,4.53
2023-03-11T13:05:03.647Z,3.30
2023-03-11T13:08:45.889Z,4.35
2023-03-11T13:12:43.333Z,2.97
2023-03-11T13:16:40.013Z,6.40
2023-03-11T13:20:43.992Z,4.18
2023-03-11T13:24:45.764Z,6.18
2023-03-11T13:28:28.460Z,8.95
2023-03-11T13:32:08.031Z,8.95
2023-03-11T13:35:52.822Z,4.20
2023-03-11T13:39:48.948Z,3.95
2023-03-11T13:43:23.550Z,3.88
2023-03-11T13:46:54.884Z,5.60
2023-03-11T13:50:29.420Z,12.18
2023-03-11T13:54:03.132Z,7.18
2023-03-11T13:57:34.677Z,3.85
2023-03-11T14:01:16.146Z,6.75
2023-03-11T14:04:52.907Z,5.47
2023-03-11T14:08:24.501Z,3.70
2023-03-11T14:11:53.991Z,3.20
2023-03-11T14:15:49.505Z,3.80
2023-03-11T14:19:27.722Z,3.03
2023-03-11T14:22:57.253Z,7.85
2023-03-11T14:26:30.157Z,3.05
2023-03-11T14:29:59.256Z,2.65
2023-03-11T14:33:29.690Z,6.20
2023-03-11T14:36:59.821Z,4.03
2023-03-11T14:40:30.742Z,4.25
2023-03-11T14:44:01.196Z,1.77
2023-03-11T14:47:35.892Z,3.25
2023-03-11T14:51:07.070Z,2.42
2023-03-11T14:54:39.593Z,3.47
2023-03-11T14:58:13.422Z,1.85
2023-03-11T15:01:45.729Z,4.28
2023-03-11T15:05:20.040Z,2.97
2023-03-11T15:08:51.444Z,5.00
2023-03-11T15:12:32.186Z,3.90
2023-03-11T15:16:01.434Z,5.00
2023-03-11T15:19:35.628Z,3.95
2023-03-11T15:23:07.903Z,5.13
2023-03-11T15:26:38.346Z,2.45
2023-03-11T15:30:19.547Z,4.75
2023-03-11T15:33:49.219Z,3.00
2023-03-11T15:37:32.990Z,5.80
2023-03-11T15:41:12.850Z,5.97
2023-03-11T15:44:49.909Z,8.07
2023-03-11T15:48:19.076Z,4.85
2023-03-11T15:51:49.460Z,3.53
2023-03-11T15:55:19.579Z,7.50
2023-03-11T15:58:48.050Z,7.00
2023-03-11T16:02:20.844Z,4.13
2023-03-11T16:05:49.294Z,5.88
2023-03-11T16:09:19.143Z,3.25
2023-03-11T16:12:46.983Z,4.32
2023-03-11T16:16:20.902Z,6.57
2023-03-11T16:19:49.756Z,9.80
2023-03-11T16:23:22.189Z,4.35
2023-03-11T16:26:52.280Z,4.15
2023-03-11T16:30:21.251Z,6.03
2023-03-11T16:33:49.132Z,8.32
2023-03-11T16:37:20.791Z,6.00
2023-03-11T16:40:56.354Z,8.02
2023-03-11T16:44:24.527Z,7.25
2023-03-11T16:47:52.582Z,6.63
2023-03-11T16:51:20.558Z,13.68
2023-03-11T16:54:50.170Z,10.32
2023-03-11T16:58:18.070Z,19.63
2023-03-11T17:01:46.864Z,11.75
2023-03-11T17:05:14.855Z,14.95
2023-03-11T17:08:46.183Z,10.90
2023-03-11T17:12:20.005Z,6.15
2023-03-11T17:15:57.639Z,9.65
2023-03-11T17:19:26.023Z,12.02
2023-03-11T17:22:54.195Z,13.27
2023-03-11T17:26:23.726Z,7.72
2023-03-11T17:29:51.761Z,7.97
2023-03-11T17:33:19.619Z,15.77
2023-03-11T17:40:15.647Z,12.55
2023-03-11T17:43:45.821Z,12.70
2023-03-11T17:47:15.072Z,8.30
2023-03-11T17:50:43.180Z,8.30
2023-03-11T17:54:11.509Z,10.93
2023-03-11T17:57:45.536Z,7.18
2023-03-11T18:01:16.894Z,7.88
2023-03-11T18:04:46.194Z,9.65
2023-03-11T18:08:14.731Z,7.47
2023-03-11T18:15:14.785Z,7.65
2023-03-11T18:18:44.560Z,13.05
2023-03-11T18:22:13.521Z,10.18
2023-03-11T18:25:41.333Z,15.20
2023-03-11T18:29:09.524Z,14.85
2023-03-11T18:36:14.976Z,14.60
2023-03-11T18:39:44.093Z,16.65
2023-03-11T18:43:13.756Z,8.20
2023-03-11T18:46:42.824Z,7.63
2023-03-11T18:50:14.358Z,11.93
2023-03-11T18:53:43.047Z,10.07
2023-03-11T18:57:12.421Z,8.77
2023-03-11T19:00:40.912Z,8.60
2023-03-11T19:04:11.248Z,6.35
2023-03-11T19:07:41.044Z,8.50
2023-03-11T19:11:10.112Z,8.45
2023-03-11T19:14:38.496Z,11.75
2023-03-11T19:18:07.578Z,9.65
2023-03-11T19:21:35.953Z,10.88
2023-03-11T19:25:06.269Z,12.63
2023-03-11T19:28:34.976Z,11.05
2023-03-11T19:32:03.708Z,11.65
2023-03-11T19:35:32.108Z,11.27
2023-03-11T19:42:29.338Z,11.07
2023-03-11T19:45:57.693Z,10.05
2023-03-11T19:49:26.124Z,11.07
2023-03-11T19:52:54.292Z,10.95
2023-03-11T19:56:22.072Z,8.77
2023-03-11T19:59:51.591Z,16.08
2023-03-11T20:03:20.861Z,12.32
2023-03-11T20:06:50.075Z,13.48
2023-03-11T20:10:18.204Z,8.05
2023-03-11T20:13:46.206Z,10.50
2023-03-11T20:17:16.710Z,6.25
2023-03-11T20:20:45.032Z,9.75
2023-03-11T20:24:13.324Z,10.70
2023-03-11T20:27:41.437Z,6.25
2023-03-11T20:31:11.220Z,5.13
2023-03-11T20:34:41.085Z,6.45
2023-03-11T20:38:11.016Z,6.45
2023-03-11T20:41:39.762Z,11.68
2023-03-11T20:45:09.453Z,7.25
2023-03-11T20:48:37.774Z,6.97
2023-03-11T20:52:08.167Z,9.10
2023-03-11T20:55:36.382Z,7.47
2023-03-11T20:59:07.097Z,9.18
2023-03-11T21:02:37.745Z,8.30
2023-03-11T21:06:15.506Z,7.40
2023-03-11T21:09:43.732Z,7.40
2023-03-11T21:13:11.890Z,5.47
2023-03-11T21:16:40.129Z,3.88
2023-03-11T21:20:08.988Z,7.38
2023-03-11T21:23:39.260Z,6.45
2023-03-11T21:27:07.838Z,8.70
2023-03-11T21:30:36.007Z,5.63
2023-03-11T21:34:04.212Z,7.93
2023-03-11T21:37:32.373Z,8.05
2023-03-11T21:41:06.090Z,6.78
2023-03-11T21:44:34.344Z,8.25
2023-03-11T21:48:06.697Z,4.65
2023-03-11T21:51:34.819Z,11.82
2023-03-11T21:55:04.403Z,5.55
2023-03-11T21:58:32.596Z,7.03
2023-03-11T22:02:03.285Z,11.20
2023-03-11T22:05:32.176Z,10.25
2023-03-11T22:09:00.148Z,10.90
2023-03-11T22:12:29.620Z,11.10
2023-03-11T22:15:57.382Z,11.73
2023-03-11T22:19:25.575Z,11.30
2023-03-11T22:22:54.354Z,11.68
2023-03-11T22:26:22.407Z,12.65
2023-03-11T22:29:51.863Z,10.40
2023-03-11T22:33:19.578Z,13.63
2023-03-11T22:40:15.965Z,12.53
2023-03-11T22:47:13.227Z,10.07
2023-03-11T22:50:41.685Z,9.73
2023-03-11T22:54:10.007Z,5.45
2023-03-11T22:57:39.063Z,6.05
2023-03-11T23:01:09.524Z,8.25
2023-03-11T23:04:39.627Z,8.18
2023-03-11T23:08:07.627Z,8.57
2023-03-11T23:11:35.731Z,10.25
2023-03-11T23:15:04.284Z,6.97
2023-03-11T23:18:32.266Z,7.53
2023-03-11T23:22:01.800Z,10.13
2023-03-11T23:25:32.002Z,4.68
2023-03-11T23:29:02.161Z,8.18
2023-03-11T23:32:31.102Z,6.90
2023-03-11T23:36:02.908Z,12.00
2023-03-11T23:39:31.195Z,9.35
2023-03-11T23:46:27.313Z,7.90
2023-03-11T23:49:55.223Z,7.78
2023-03-11T23:53:25.431Z,5.57
2023-03-11T23:56:53.567Z,6.00
